createdAt,value
2022-08-09T00:00:06.535Z,72.87
2022-08-09T00:02:35.086Z,72.83
2022-08-09T00:06:12.169Z,72.95
2022-08-09T00:07:48.929Z,72.90
2022-08-09T00:10:21.506Z,72.95
2022-08-09T00:12:51.626Z,73.15
2022-08-09T00:15:19.493Z,73.36
2022-08-09T00:18:05.675Z,73.13
2022-08-09T00:20:32.437Z,73.44
2022-08-09T00:23:10.051Z,73.75
2022-08-09T00:25:51.764Z,73.41
2022-08-09T00:28:19.275Z,73.41
2022-08-09T00:30:50.802Z,73.10
2022-08-09T00:33:17.357Z,73.19
2022-08-09T00:35:44.428Z,73.12
2022-08-09T00:38:12.781Z,72.86
2022-08-09T00:40:40.093Z,73.35
2022-08-09T00:44:19.578Z,73.81
2022-08-09T00:46:09.386Z,74.11
2022-08-09T00:48:37.203Z,73.96
2022-08-09T00:51:10.306Z,74.20
2022-08-09T00:53:39.926Z,74.33
2022-08-09T00:56:09.746Z,74.62
2022-08-09T00:58:37.075Z,74.50
2022-08-09T01:01:12.517Z,74.44
2022-08-09T01:03:55.023Z,74.62
2022-08-09T01:06:54.831Z,74.54
2022-08-09T01:09:37.112Z,74.85
2022-08-09T01:12:29.621Z,74.81
2022-08-09T01:15:09.859Z,75.38
2022-08-09T01:17:57.758Z,75.29
2022-08-09T01:20:45.736Z,74.95
2022-08-09T01:24:01.902Z,75.47
2022-08-09T01:26:36.140Z,75.59
2022-08-09T01:29:04.596Z,75.71
2022-08-09T01:32:30.157Z,75.84
2022-08-09T01:34:26.020Z,75.82
2022-08-09T01:36:56.256Z,76.26
2022-08-09T01:39:26.841Z,76.30
2022-08-09T01:41:59.909Z,76.35
2022-08-09T01:44:29.889Z,76.30
2022-08-09T01:46:59.172Z,76.63
2022-08-09T01:49:31.997Z,76.23
2022-08-09T01:52:09.117Z,76.34
2022-08-09T01:54:42.031Z,76.33
2022-08-09T01:57:15.216Z,76.84
2022-08-09T01:59:51.885Z,76.89
2022-08-09T02:02:23.734Z,77.04
2022-08-09T02:05:04.653Z,76.81
2022-08-09T02:08:41.353Z,77.14
2022-08-09T02:10:30.118Z,76.77
2022-08-09T02:12:59.654Z,76.60
2022-08-09T02:15:48.785Z,76.93
2022-08-09T02:18:19.395Z,77.13
2022-08-09T02:20:53.664Z,76.77
2022-08-09T02:23:27.806Z,76.67
2022-08-09T02:26:00.205Z,77.03
2022-08-09T02:28:35.895Z,77.14
2022-08-09T02:31:06.281Z,76.83
2022-08-09T02:34:06.395Z,77.08
2022-08-09T02:36:31.639Z,77.09
2022-08-09T02:39:04.345Z,77.25
2022-08-09T02:41:45.468Z,76.73
2022-08-09T02:44:29.566Z,77.41
2022-08-09T02:47:01.207Z,77.18
2022-08-09T02:49:39.015Z,77.18
2022-08-09T02:52:11.918Z,77.01
2022-08-09T02:54:51.153Z,77.28
2022-08-09T02:57:23.242Z,76.97
2022-08-09T03:00:21.388Z,77.46
2022-08-09T03:02:58.564Z,77.89
2022-08-09T03:05:28.035Z,77.43
2022-08-09T03:07:56.096Z,77.83
2022-08-09T03:10:25.081Z,77.43
2022-08-09T03:12:52.979Z,77.84
2022-08-09T03:15:20.857Z,77.29
2022-08-09T03:17:57.897Z,77.59
2022-08-09T03:20:29.717Z,77.47
2022-08-09T03:22:58.427Z,77.54
2022-08-09T03:25:59.260Z,77.48
2022-08-09T03:28:30.472Z,77.64
2022-08-09T03:30:57.993Z,77.39
2022-08-09T03:33:26.658Z,77.70
2022-08-09T03:36:16.340Z,77.59
2022-08-09T03:38:44.886Z,77.65
2022-08-09T03:41:14.635Z,77.93
2022-08-09T03:43:42.776Z,77.55
2022-08-09T03:46:29.228Z,77.99
2022-08-09T03:49:03.885Z,77.64
2022-08-09T03:51:57.036Z,78.08
2022-08-09T03:54:29.702Z,78.12
2022-08-09T03:57:00.634Z,78.04
2022-08-09T03:59:43.131Z,78.00
2022-08-09T04:02:14.213Z,78.33
2022-08-09T04:04:41.032Z,78.24
2022-08-09T04:07:14.499Z,78.01
2022-08-09T04:09:49.929Z,78.29
2022-08-09T04:12:46.603Z,78.29
2022-08-09T04:15:40.416Z,78.19
2022-08-09T04:18:06.407Z,78.33
2022-08-09T04:20:33.228Z,78.03
2022-08-09T04:23:00.513Z,78.07
2022-08-09T04:25:28.966Z,78.24
2022-08-09T04:27:59.925Z,78.16
2022-08-09T04:30:29.280Z,78.31
2022-08-09T04:32:56.929Z,78.37
2022-08-09T04:35:23.464Z,78.37
2022-08-09T04:37:50.370Z,78.31
2022-08-09T04:40:28.654Z,78.62
2022-08-09T04:43:02.459Z,78.40
2022-08-09T04:45:30.769Z,78.76
2022-08-09T04:48:02.125Z,78.65
2022-08-09T04:50:31.983Z,78.72
2022-08-09T04:53:13.241Z,78.61
2022-08-09T04:55:58.926Z,78.62
2022-08-09T04:58:27.630Z,78.80
2022-08-09T05:00:55.197Z,78.68
2022-08-09T05:03:40.034Z,78.63
2022-08-09T05:06:09.653Z,78.54
2022-08-09T05:08:36.317Z,78.39
2022-08-09T05:11:03.596Z,78.25
2022-08-09T05:13:34.090Z,78.04
2022-08-09T05:16:06.381Z,78.02
2022-08-09T05:18:57.408Z,77.89
2022-08-09T05:21:24.444Z,78.16
2022-08-09T05:24:00.023Z,78.32
2022-08-09T05:26:45.637Z,78.14
2022-08-09T05:29:21.085Z,77.83
2022-08-09T05:31:56.845Z,77.95
2022-08-09T05:34:30.749Z,77.84
2022-08-09T05:37:06.059Z,77.87
2022-08-09T05:39:36.524Z,77.54
2022-08-09T05:42:10.209Z,77.85
2022-08-09T05:44:44.830Z,77.75
2022-08-09T05:47:14.261Z,77.59
2022-08-09T05:50:28.171Z,77.26
2022-08-09T05:52:27.435Z,77.25
2022-08-09T05:54:57.344Z,77.31
2022-08-09T05:57:50.432Z,77.11
2022-08-09T06:00:16.926Z,77.25
2022-08-09T06:02:46.612Z,77.08
2022-08-09T06:05:13.544Z,76.97
2022-08-09T06:07:40.112Z,76.66
2022-08-09T06:10:09.465Z,76.95
2022-08-09T06:12:43.104Z,76.36
2022-08-09T06:15:11.250Z,76.13
2022-08-09T06:17:40.647Z,75.58
2022-08-09T06:20:08.579Z,75.09
2022-08-09T06:22:40.996Z,74.80
2022-08-09T06:25:12.483Z,74.27
2022-08-09T06:28:06.156Z,73.69
2022-08-09T06:44:31.555Z,73.97
2022-08-09T06:46:59.471Z,73.31
2022-08-09T06:49:44.697Z,73.58
2022-08-09T06:52:15.643Z,73.22
2022-08-09T06:54:43.044Z,73.42
2022-08-09T06:57:12.104Z,73.24
2022-08-09T07:00:50.844Z,73.18
2022-08-09T07:03:17.165Z,72.90
2022-08-09T07:05:58.296Z,73.64
2022-08-09T07:09:01.871Z,73.25
2022-08-09T07:17:16.971Z,71.35
2022-08-09T07:22:58.192Z,71.93
2022-08-09T07:25:25.530Z,71.97
2022-08-09T07:34:08.287Z,71.33
2022-08-09T07:36:49.017Z,71.23
2022-08-09T07:39:20.314Z,70.46
2022-08-09T07:42:50.071Z,70.68
2022-08-09T07:45:38.417Z,70.17
2022-08-09T07:48:52.840Z,70.30
2022-08-09T07:52:04.467Z,69.19
2022-08-09T08:00:03.083Z,69.19
2022-08-09T08:02:32.169Z,68.83
2022-08-09T08:04:58.999Z,68.47
2022-08-09T08:08:43.055Z,68.77
2022-08-09T08:10:12.353Z,68.19
2022-08-09T08:12:45.640Z,67.83
2022-08-09T08:15:42.724Z,66.86
2022-08-09T08:18:07.308Z,66.71
2022-08-09T08:20:33.932Z,66.86
2022-08-09T08:23:15.779Z,66.39
2022-08-09T08:25:44.278Z,65.49
2022-08-09T08:28:11.455Z,64.83
2022-08-09T08:30:41.789Z,64.23
2022-08-09T08:33:11.941Z,64.27
2022-08-09T08:35:58.452Z,62.84
2022-08-09T08:38:28.807Z,62.23
2022-08-09T08:40:56.701Z,61.85
2022-08-09T08:43:24.346Z,62.49
2022-08-09T08:46:00.080Z,62.63
2022-08-09T08:48:51.812Z,61.47
2022-08-09T08:51:22.496Z,60.55
2022-08-09T08:54:03.084Z,60.27
2022-08-09T08:56:35.467Z,59.75
2022-08-09T08:59:19.134Z,60.79
2022-08-09T09:01:52.942Z,60.60
2022-08-09T09:04:31.093Z,59.50
2022-08-09T09:07:07.945Z,59.49
2022-08-09T09:09:58.477Z,58.82
2022-08-09T09:12:29.189Z,58.98
2022-08-09T09:14:59.243Z,58.18
2022-08-09T09:17:25.856Z,58.77
2022-08-09T09:20:15.478Z,58.79
2022-08-09T09:22:51.868Z,57.56
2022-08-09T09:26:03.951Z,58.41
2022-08-09T09:29:01.704Z,58.17
2022-08-09T09:32:04.646Z,57.74
2022-08-09T09:34:14.561Z,57.93
2022-08-09T09:36:50.910Z,57.53
2022-08-09T09:39:23.469Z,58.17
2022-08-09T09:41:54.266Z,58.61
2022-08-09T09:44:25.715Z,57.40
2022-08-09T09:46:56.759Z,57.96
2022-08-09T09:49:56.395Z,56.89
2022-08-09T09:52:35.640Z,56.71
2022-08-09T09:55:02.638Z,56.05
2022-08-09T09:58:03.317Z,56.46
2022-08-09T10:00:31.885Z,56.34
2022-08-09T10:03:00.279Z,54.13
2022-08-09T10:06:03.792Z,54.63
2022-08-09T10:08:27.558Z,55.01
2022-08-09T10:10:55.649Z,54.56
2022-08-09T10:13:24.582Z,54.21
2022-08-09T10:16:56.496Z,55.08
2022-08-09T10:18:59.908Z,53.72
2022-08-09T10:21:27.536Z,52.81
2022-08-09T10:23:56.740Z,52.84
2022-08-09T10:26:24.640Z,52.76
2022-08-09T10:29:31.664Z,51.56
2022-08-09T10:32:35.650Z,51.68
2022-08-09T10:34:33.073Z,50.76
2022-08-09T10:37:02.432Z,50.41
2022-08-09T10:39:29.915Z,50.71
2022-08-09T10:42:08.453Z,50.16
2022-08-09T10:44:39.972Z,48.47
2022-08-09T10:48:14.446Z,48.97
2022-08-09T10:50:27.276Z,50.29
2022-08-09T10:53:05.217Z,48.77
2022-08-09T10:55:58.735Z,48.55
2022-08-09T10:58:34.990Z,47.65
2022-08-09T11:03:02.429Z,47.05
2022-08-09T11:04:19.484Z,46.73
2022-08-09T11:06:59.899Z,46.20
2022-08-09T11:09:47.431Z,46.42
2022-08-09T11:12:17.472Z,45.43
2022-08-09T11:14:54.787Z,45.21
2022-08-09T11:17:22.571Z,44.79
2022-08-09T11:20:11.089Z,44.97
2022-08-09T11:22:42.744Z,45.11
2022-08-09T11:25:14.606Z,44.63
2022-08-09T11:28:07.869Z,44.93
2022-08-09T11:30:36.021Z,44.37
2022-08-09T11:33:10.514Z,43.61
2022-08-09T11:35:49.603Z,43.82
2022-08-09T11:38:28.545Z,44.05
2022-08-09T11:41:37.532Z,44.19
2022-08-09T11:44:05.365Z,43.78
2022-08-09T11:46:52.335Z,44.77
2022-08-09T11:49:28.047Z,43.44
2022-08-09T11:52:48.910Z,43.56
2022-08-09T11:55:39.895Z,43.28
2022-08-09T11:58:14.246Z,42.84
2022-08-09T12:00:53.211Z,42.51
2022-08-09T12:03:55.679Z,42.62
2022-08-09T12:06:13.771Z,42.88
2022-08-09T12:08:48.368Z,42.62
2022-08-09T12:11:17.231Z,42.52
2022-08-09T12:14:09.924Z,40.68
2022-08-09T12:16:40.407Z,41.93
2022-08-09T12:19:09.270Z,41.70
2022-08-09T12:21:48.516Z,42.31
2022-08-09T12:24:24.212Z,43.31
2022-08-09T12:28:59.794Z,43.98
2022-08-09T12:29:43.979Z,43.58
2022-08-09T12:32:27.088Z,44.66
2022-08-09T12:35:02.968Z,44.28
2022-08-09T12:37:44.121Z,44.50
2022-08-09T12:40:18.753Z,44.73
2022-08-09T12:42:50.478Z,44.80
2022-08-09T12:45:33.269Z,44.36
2022-08-09T12:48:03.104Z,44.83
2022-08-09T12:50:29.987Z,44.92
2022-08-09T12:53:18.095Z,44.81
2022-08-09T12:56:12.334Z,45.00
2022-08-09T12:58:29.818Z,45.02
2022-08-09T13:00:56.647Z,44.06
2022-08-09T13:03:56.921Z,44.43
2022-08-09T13:06:34.969Z,45.26
2022-08-09T13:09:06.285Z,44.95
2022-08-09T13:11:35.525Z,44.31
2022-08-09T13:14:42.139Z,44.99
2022-08-09T13:17:13.535Z,44.82
2022-08-09T13:20:09.709Z,45.05
2022-08-09T13:23:00.262Z,45.47
2022-08-09T13:25:18.337Z,44.97
2022-08-09T13:27:48.803Z,44.09
2022-08-09T13:30:48.974Z,45.03
2022-08-09T13:33:11.626Z,46.23
2022-08-09T13:36:37.585Z,44.84
2022-08-09T13:38:54.673Z,45.81
2022-08-09T13:41:55.515Z,44.89
2022-08-09T13:44:08.214Z,44.40
2022-08-09T13:47:16.158Z,44.31
2022-08-09T13:49:21.324Z,44.46
2022-08-09T13:52:01.427Z,44.68
2022-08-09T13:54:35.190Z,44.69
2022-08-09T13:57:47.302Z,45.16
2022-08-09T14:09:34.714Z,44.86
2022-08-09T14:12:07.026Z,44.71
2022-08-09T14:14:43.888Z,45.41
2022-08-09T14:17:13.705Z,45.25
2022-08-09T14:19:43.719Z,45.84
2022-08-09T14:22:11.446Z,46.37
2022-08-09T14:24:46.900Z,46.47
2022-08-09T14:27:20.912Z,46.59
2022-08-09T14:30:34.137Z,46.56
2022-08-09T14:32:34.473Z,46.21
2022-08-09T14:35:06.346Z,46.48
2022-08-09T14:37:41.276Z,46.65
2022-08-09T14:40:19.466Z,45.89
2022-08-09T14:43:05.696Z,45.32
2022-08-09T14:46:57.491Z,45.33
2022-08-09T14:48:18.744Z,46.63
2022-08-09T14:50:45.625Z,45.92
2022-08-09T14:53:13.866Z,46.06
2022-08-09T14:55:49.979Z,45.56
2022-08-09T14:58:17.315Z,45.80
2022-08-09T15:00:48.104Z,45.77
2022-08-09T15:03:16.690Z,46.07
2022-08-09T15:05:51.394Z,45.38
2022-08-09T15:08:24.205Z,44.68
2022-08-09T15:11:00.757Z,45.61
2022-08-09T15:13:48.336Z,45.33
2022-08-09T15:16:17.708Z,45.20
2022-08-09T15:18:44.430Z,45.16
2022-08-09T15:21:56.134Z,45.36
2022-08-09T15:24:12.412Z,44.35
2022-08-09T15:26:45.313Z,45.03
2022-08-09T15:30:55.570Z,45.29
2022-08-09T15:32:00.199Z,45.83
2022-08-09T15:34:34.258Z,45.88
2022-08-09T15:37:04.183Z,45.10
2022-08-09T15:39:43.938Z,45.47
2022-08-09T15:42:18.914Z,45.42
2022-08-09T15:44:45.881Z,45.25
2022-08-09T15:47:13.935Z,46.17
2022-08-09T15:49:41.610Z,45.83
2022-08-09T15:52:27.754Z,45.38
2022-08-09T15:54:54.925Z,46.16
2022-08-09T15:57:34.681Z,45.77
2022-08-09T16:00:14.833Z,45.48
2022-08-09T16:02:53.533Z,45.25
2022-08-09T16:05:22.669Z,46.76
2022-08-09T16:07:50.632Z,46.00
2022-08-09T16:10:56.006Z,46.09
2022-08-09T16:13:20.840Z,45.87
2022-08-09T16:16:04.697Z,45.93
2022-08-09T16:18:44.745Z,45.59
2022-08-09T16:21:12.029Z,49.38
2022-08-09T16:23:50.772Z,52.06
2022-08-09T16:26:35.170Z,52.55
2022-08-09T16:29:11.833Z,53.06
2022-08-09T16:32:18.083Z,53.05
2022-08-09T16:34:28.953Z,53.45
2022-08-09T16:36:56.649Z,52.92
2022-08-09T16:39:25.877Z,53.04
2022-08-09T16:42:02.814Z,52.65
2022-08-09T16:44:32.163Z,50.97
2022-08-09T16:47:04.078Z,47.22
2022-08-09T16:50:29.779Z,48.87
2022-08-09T16:52:32.637Z,46.90
2022-08-09T16:54:59.548Z,46.84
2022-08-09T16:57:26.158Z,47.31
2022-08-09T17:00:14.090Z,48.29
2022-08-09T17:02:43.776Z,47.59
2022-08-09T17:05:14.240Z,47.61
2022-08-09T17:08:46.288Z,48.34
2022-08-09T17:10:33.470Z,48.07
2022-08-09T17:13:01.534Z,47.09
2022-08-09T17:15:59.090Z,47.61
2022-08-09T17:18:15.213Z,48.06
2022-08-09T17:20:50.898Z,48.40
2022-08-09T17:23:20.209Z,48.87
2022-08-09T17:25:52.953Z,48.76
2022-08-09T17:28:19.954Z,48.62
2022-08-09T17:30:47.888Z,48.51
2022-08-09T17:33:21.829Z,48.59
2022-08-09T17:35:50.070Z,49.18
2022-08-09T17:38:30.702Z,49.35
2022-08-09T17:41:02.976Z,49.14
2022-08-09T17:43:37.353Z,49.65
2022-08-09T17:46:08.730Z,49.46
2022-08-09T17:48:38.674Z,49.49
2022-08-09T17:51:17.920Z,50.12
2022-08-09T17:53:52.831Z,49.94
2022-08-09T17:56:27.756Z,50.51
2022-08-09T17:58:57.228Z,50.70
2022-08-09T18:01:24.061Z,50.64
2022-08-09T18:04:01.278Z,50.41
2022-08-09T18:06:33.397Z,50.42
2022-08-09T18:09:03.653Z,50.55
2022-08-09T18:12:04.955Z,50.79
2022-08-09T18:14:20.819Z,50.81
2022-08-09T18:16:49.086Z,50.88
2022-08-09T18:20:56.291Z,50.96
2022-08-09T18:22:04.894Z,50.87
2022-08-09T18:25:50.273Z,51.30
2022-08-09T18:30:38.593Z,51.61
2022-08-09T18:31:06.035Z,52.10
2022-08-09T18:33:35.002Z,51.87
2022-08-09T18:36:02.184Z,52.35
2022-08-09T18:38:28.867Z,52.39
2022-08-09T18:40:55.838Z,52.21
2022-08-09T18:43:24.675Z,52.47
2022-08-09T18:46:46.671Z,52.67
2022-08-09T18:48:37.751Z,52.54
2022-08-09T18:51:04.656Z,52.90
2022-08-09T18:53:56.955Z,52.61
2022-08-09T18:56:27.853Z,52.83
2022-08-09T18:58:56.153Z,52.89
2022-08-09T19:01:23.384Z,53.08
2022-08-09T19:04:01.828Z,53.39
2022-08-09T19:06:33.688Z,53.60
2022-08-09T19:09:02.790Z,53.54
2022-08-09T19:11:37.363Z,53.62
2022-08-09T19:14:06.605Z,53.59
2022-08-09T19:16:35.992Z,53.91
2022-08-09T19:19:23.490Z,54.37
2022-08-09T19:22:04.800Z,54.71
2022-08-09T19:24:38.768Z,54.38
2022-08-09T19:27:20.580Z,54.35
2022-08-09T19:30:20.946Z,54.43
2022-08-09T19:32:35.916Z,54.88
2022-08-09T19:35:04.433Z,54.78
2022-08-09T19:37:41.228Z,54.86
2022-08-09T19:40:19.361Z,55.16
2022-08-09T19:42:47.478Z,55.43
2022-08-09T19:45:16.241Z,55.46
2022-08-09T19:47:44.374Z,55.63
2022-08-09T19:50:49.270Z,56.21
2022-08-09T19:52:59.297Z,56.11
2022-08-09T19:56:02.313Z,56.61
2022-08-09T19:58:16.459Z,56.63
2022-08-09T20:00:45.492Z,56.80
2022-08-09T20:04:26.514Z,56.87
2022-08-09T20:06:03.191Z,56.68
2022-08-09T20:08:34.707Z,56.90
2022-08-09T20:11:04.492Z,57.34
2022-08-09T20:13:32.291Z,57.30
2022-08-09T20:16:37.360Z,57.29
2022-08-09T20:19:42.185Z,57.52
2022-08-09T20:21:40.707Z,57.96
2022-08-09T20:24:29.572Z,58.12
2022-08-09T20:27:00.974Z,58.81
2022-08-09T20:29:32.995Z,58.96
2022-08-09T20:32:30.773Z,59.09
2022-08-09T20:34:53.749Z,58.78
2022-08-09T20:37:21.578Z,58.94
2022-08-09T20:40:17.693Z,58.87
2022-08-09T20:42:37.801Z,58.54
2022-08-09T20:45:57.212Z,58.64
2022-08-09T20:47:52.393Z,58.85
2022-08-09T20:50:48.434Z,59.12
2022-08-09T20:53:18.727Z,59.38
2022-08-09T20:56:00.767Z,59.22
2022-08-09T20:58:32.859Z,59.38
2022-08-09T21:01:32.446Z,59.11
2022-08-09T21:05:48.545Z,58.83
2022-08-09T21:06:36.114Z,58.78
2022-08-09T21:09:03.964Z,58.77
2022-08-09T21:14:17.434Z,58.81
2022-08-09T21:16:45.604Z,59.03
2022-08-09T21:20:18.877Z,58.68
2022-08-09T21:22:00.135Z,58.68
2022-08-09T21:24:32.607Z,58.83
2022-08-09T21:27:50.433Z,58.89
2022-08-09T21:29:49.082Z,58.37
2022-08-09T21:35:00.262Z,58.48
2022-08-09T21:37:27.093Z,58.37
2022-08-09T21:40:10.866Z,58.55
2022-08-09T21:42:38.318Z,58.26
2022-08-09T21:45:06.649Z,58.17
2022-08-09T21:47:33.979Z,57.79
2022-08-09T21:50:00.922Z,57.59
2022-08-09T21:52:29.762Z,57.74
2022-08-09T21:55:03.902Z,57.58
2022-08-09T21:57:37.276Z,57.74
2022-08-09T22:00:10.647Z,57.62
2022-08-09T22:02:40.114Z,57.83
2022-08-09T22:05:22.144Z,57.88
2022-08-09T22:07:53.374Z,57.93
2022-08-09T22:10:23.212Z,57.74
2022-08-09T22:12:52.224Z,57.82
2022-08-09T22:15:23.249Z,58.13
2022-08-09T22:17:59.978Z,58.55
2022-08-09T22:20:27.330Z,58.42
2022-08-09T22:22:57.733Z,58.80
2022-08-09T22:26:07.259Z,59.01
2022-08-09T22:28:11.463Z,58.77
2022-08-09T22:30:39.188Z,59.29
2022-08-09T22:33:17.216Z,59.26
2022-08-09T22:36:01.823Z,59.26
2022-08-09T22:38:30.413Z,59.40
2022-08-09T22:40:59.393Z,59.24
2022-08-09T22:44:02.392Z,59.50
2022-08-09T22:48:13.476Z,59.52
2022-08-09T22:49:10.189Z,59.60
2022-08-09T22:51:38.337Z,59.63
2022-08-09T22:54:08.073Z,59.32
2022-08-09T22:56:35.062Z,59.76
2022-08-09T22:59:06.110Z,60.24
2022-08-09T23:01:51.125Z,60.48
2022-08-09T23:04:18.045Z,60.23
2022-08-09T23:07:03.071Z,60.12
2022-08-09T23:09:37.530Z,60.51
2022-08-09T23:12:04.504Z,60.27
2022-08-09T23:14:41.665Z,60.31
2022-08-09T23:17:10.010Z,60.69
2022-08-09T23:20:07.441Z,60.74
2022-08-09T23:22:24.411Z,60.66
2022-08-09T23:24:53.667Z,60.60
2022-08-09T23:27:20.398Z,60.38
2022-08-09T23:29:47.124Z,60.32
2022-08-09T23:32:13.861Z,60.74
2022-08-09T23:34:40.582Z,60.90
2022-08-09T23:39:51.122Z,60.88
2022-08-09T23:42:17.732Z,61.42
2022-08-09T23:44:44.528Z,61.30
2022-08-09T23:47:12.342Z,61.38
2022-08-09T23:49:38.908Z,61.53
2022-08-09T23:52:05.610Z,61.47
2022-08-09T23:54:32.431Z,61.47
2022-08-09T23:56:59.189Z,61.75
2022-08-09T23:59:46.105Z,61.72
